createdAt,value
2018-12-03T00:01:12.844Z,99634.17
2018-12-03T00:03:46.126Z,99633.92
2018-12-03T00:06:19.859Z,99634.44
2018-12-03T00:08:52.100Z,99623.95
2018-12-03T00:11:25.426Z,99623.66
2018-12-03T00:13:56.886Z,99623.39
2018-12-03T00:16:28.256Z,99615.88
2018-12-03T00:19:00.105Z,99614.53
2018-12-03T00:21:32.590Z,99611.84
2018-12-03T00:24:04.552Z,99607.52
2018-12-03T00:26:36.283Z,99609.94
2018-12-03T00:29:08.537Z,99605.66
2018-12-03T00:31:40.735Z,99608.58
2018-12-03T00:34:12.743Z,99614.80
2018-12-03T00:36:45.281Z,99612.90
2018-12-03T00:39:17.417Z,99610.20
2018-12-03T00:41:49.275Z,99608.34
2018-12-03T00:44:20.674Z,99604.30
2018-12-03T00:46:52.409Z,99608.86
2018-12-03T00:49:24.611Z,99607.52
2018-12-03T00:51:55.975Z,99612.37
2018-12-03T00:54:28.551Z,99611.28
2018-12-03T00:57:01.074Z,99617.50
2018-12-03T00:59:32.777Z,99611.56
2018-12-03T01:02:05.385Z,99612.91
2018-12-03T01:04:37.149Z,99615.08
2018-12-03T01:07:10.787Z,99613.19
2018-12-03T01:09:42.391Z,99609.70
2018-12-03T01:12:14.430Z,99610.49
2018-12-03T01:14:46.549Z,99614.81
2018-12-03T01:17:19.146Z,99613.46
2018-12-03T01:19:50.569Z,99620.72
2018-12-03T01:22:22.508Z,99619.37
2018-12-03T01:24:55.258Z,99617.75
2018-12-03T01:27:27.925Z,99616.95
2018-12-03T01:30:00.254Z,99616.68
2018-12-03T01:32:32.752Z,99616.43
2018-12-03T01:35:05.119Z,99608.36
2018-12-03T01:37:37.639Z,99606.73
2018-12-03T01:40:14.513Z,99602.70
2018-12-03T01:42:46.644Z,99605.67
2018-12-03T01:45:18.734Z,99594.36
2018-12-03T01:47:50.768Z,99586.01
2018-12-03T01:50:22.863Z,99585.73
2018-12-03T01:52:54.436Z,99587.63
2018-12-03T01:55:26.145Z,99592.20
2018-12-03T01:57:58.203Z,99592.20
2018-12-03T02:00:29.592Z,99590.86
2018-12-03T02:03:01.522Z,99598.66
2018-12-03T02:05:32.895Z,99588.70
2018-12-03T02:08:06.067Z,99590.59
2018-12-03T02:10:38.420Z,99592.22
2018-12-03T02:13:10.132Z,99580.63
2018-12-03T02:15:43.493Z,99590.05
2018-12-03T02:18:15.474Z,99576.59
2018-12-03T02:20:47.048Z,99584.67
2018-12-03T02:23:19.404Z,99580.36
2018-12-03T02:25:52.440Z,99576.88
2018-12-03T02:28:25.069Z,99580.91
2018-12-03T02:30:57.233Z,99576.87
2018-12-03T02:33:29.625Z,99576.32
2018-12-03T02:36:01.676Z,99575.80
2018-12-03T02:38:33.331Z,99574.45
2018-12-03T02:41:05.025Z,99576.33
2018-12-03T02:43:36.584Z,99575.25
2018-12-03T02:46:09.241Z,99567.73
2018-12-03T02:48:41.231Z,99570.14
2018-12-03T02:51:13.647Z,99563.41
2018-12-03T02:53:45.647Z,99559.93
2018-12-03T02:56:18.600Z,99559.37
2018-12-03T02:58:49.965Z,99564.21
2018-12-03T03:01:23.245Z,99559.66
2018-12-03T03:03:55.508Z,99555.07
2018-12-03T03:06:27.792Z,99554.00
2018-12-03T03:08:59.639Z,99551.84
2018-12-03T03:11:31.659Z,99551.84
2018-12-03T03:14:03.368Z,99545.11
2018-12-03T03:16:34.980Z,99545.39
2018-12-03T03:19:06.808Z,99546.73
2018-12-03T03:21:39.168Z,99545.95
2018-12-03T03:24:10.906Z,99545.39
2018-12-03T03:26:42.993Z,99548.09
2018-12-03T03:29:15.977Z,99551.05
2018-12-03T03:31:47.420Z,99554.30
2018-12-03T03:34:19.864Z,99546.47
2018-12-03T03:36:52.054Z,99555.37
2018-12-03T03:39:24.414Z,99552.95
2018-12-03T03:41:57.277Z,99549.99
2018-12-03T03:44:29.627Z,99548.37
2018-12-03T03:47:01.603Z,99549.72
2018-12-03T03:49:33.375Z,99544.33
2018-12-03T03:52:05.536Z,99531.67
2018-12-03T03:54:37.936Z,99523.60
2018-12-03T03:57:10.106Z,99520.39
2018-12-03T03:59:42.859Z,99525.50
2018-12-03T04:02:15.500Z,99519.05
2018-12-03T04:04:47.175Z,99513.39
2018-12-03T04:07:19.021Z,99510.42
2018-12-03T04:09:50.621Z,99524.43
2018-12-03T04:12:23.163Z,99533.30
2018-12-03T04:14:55.705Z,99526.57
2018-12-03T04:17:28.825Z,99523.88
2018-12-03T04:20:00.590Z,99522.53
2018-12-03T04:22:32.268Z,99536.27
2018-12-03T04:25:04.048Z,99524.43
2018-12-03T04:27:35.307Z,99529.54
2018-12-03T04:30:11.756Z,99524.95
2018-12-03T04:32:43.787Z,99526.02
2018-12-03T04:35:15.868Z,99524.68
2018-12-03T04:37:47.956Z,99517.42
2018-12-03T04:40:19.920Z,99512.05
2018-12-03T04:42:52.381Z,99513.91
2018-12-03T04:45:24.801Z,99517.70
2018-12-03T04:47:57.632Z,99515.25
2018-12-03T04:50:30.056Z,99510.14
2018-12-03T04:53:02.208Z,99512.56
2018-12-03T04:55:33.992Z,99507.73
2018-12-03T04:58:05.478Z,99506.11
2018-12-03T05:00:36.992Z,99506.11
2018-12-03T05:03:08.299Z,99505.83
2018-12-03T05:05:40.013Z,99502.89
2018-12-03T05:08:12.436Z,99491.84
2018-12-03T05:10:43.656Z,99492.13
2018-12-03T05:13:15.040Z,99490.50
2018-12-03T05:15:46.680Z,99495.89
2018-12-03T05:18:18.179Z,99492.92
2018-12-03T05:20:49.846Z,99488.33
2018-12-03T05:23:22.284Z,99480.01
2018-12-03T05:25:54.558Z,99472.73
2018-12-03T05:28:26.835Z,99484.05
2018-12-03T05:30:58.991Z,99476.77
2018-12-03T05:33:30.644Z,99475.42
2018-12-03T05:36:02.145Z,99478.66
2018-12-03T05:38:33.485Z,99480.25
2018-12-03T05:41:05.099Z,99481.35
2018-12-03T05:43:36.471Z,99482.42
2018-12-03T05:46:08.686Z,99479.45
2018-12-03T05:48:40.778Z,99476.48
2018-12-03T05:51:12.502Z,99475.14
2018-12-03T05:53:43.976Z,99478.11
2018-12-03T05:56:15.843Z,99478.38
2018-12-03T05:58:48.098Z,99484.56
2018-12-03T06:01:19.419Z,99487.80
2018-12-03T06:03:50.866Z,99491.02
2018-12-03T06:06:22.301Z,99484.28
2018-12-03T06:08:53.782Z,99480.00
2018-12-03T06:11:25.729Z,99490.22
2018-12-03T06:13:57.822Z,99489.95
2018-12-03T06:16:29.556Z,99489.95
2018-12-03T06:19:01.687Z,99485.64
2018-12-03T06:21:33.320Z,99485.12
2018-12-03T06:24:04.882Z,99487.81
2018-12-03T06:26:36.094Z,99499.09
2018-12-03T06:29:07.482Z,99503.41
2018-12-03T06:31:39.419Z,99503.96
2018-12-03T06:34:11.087Z,99508.25
2018-12-03T06:36:42.463Z,99509.59
2018-12-03T06:39:13.788Z,99506.90
2018-12-03T06:41:45.102Z,99499.65
2018-12-03T06:44:17.755Z,99499.38
2018-12-03T06:46:49.363Z,99500.72
2018-12-03T06:49:20.921Z,99505.59
2018-12-03T06:51:52.377Z,99508.00
2018-12-03T06:54:24.012Z,99509.35
2018-12-03T06:56:56.444Z,99511.77
2018-12-03T06:59:28.053Z,99517.70
2018-12-03T07:01:59.410Z,99527.13
2018-12-03T07:04:30.773Z,99523.88
2018-12-03T07:07:02.989Z,99520.39
2018-12-03T07:09:34.364Z,99528.72
2018-12-03T07:12:06.373Z,99521.19
2018-12-03T07:14:38.422Z,99524.43
2018-12-03T07:17:09.930Z,99529.27
2018-12-03T07:19:42.421Z,99531.41
2018-12-03T07:22:14.074Z,99534.64
2018-12-03T07:24:45.469Z,99538.68
2018-12-03T07:27:16.780Z,99535.98
2018-12-03T07:29:52.869Z,99540.02
2018-12-03T07:32:22.196Z,99550.24
2018-12-03T07:34:54.377Z,99558.07
2018-12-03T07:37:26.114Z,99552.41
2018-12-03T07:39:57.540Z,99559.14
2018-12-03T07:42:29.216Z,99552.69
2018-12-03T07:45:00.596Z,99552.41
2018-12-03T07:47:31.941Z,99557.25
2018-12-03T07:50:03.470Z,99552.94
2018-12-03T07:52:36.671Z,99560.22
2018-12-03T07:55:12.674Z,99560.22
2018-12-03T07:57:51.276Z,99560.50
2018-12-03T08:00:27.542Z,99562.36
2018-12-03T08:02:59.870Z,99560.49
2018-12-03T08:05:31.986Z,99566.39
2018-12-03T08:08:03.691Z,99570.43
2018-12-03T08:10:35.123Z,99567.74
2018-12-03T08:13:07.263Z,99580.41
2018-12-03T08:15:38.590Z,99584.72
2018-12-03T08:18:12.180Z,99581.75
2018-12-03T08:21:09.264Z,99578.79
2018-12-03T08:23:55.359Z,99586.07
2018-12-03T08:26:26.802Z,99579.63
2018-12-03T08:28:58.256Z,99589.28
2018-12-03T08:31:30.664Z,99596.28
2018-12-03T08:34:03.038Z,99597.36
2018-12-03T08:36:34.861Z,99610.02
2018-12-03T08:39:10.036Z,99607.33
2018-12-03T08:41:41.941Z,99596.28
2018-12-03T08:44:17.191Z,99601.40
2018-12-03T08:46:49.551Z,99606.27
2018-12-03T08:49:22.334Z,99605.19
2018-12-03T08:51:54.012Z,99616.48
2018-12-03T08:54:26.092Z,99609.47
2018-12-03T08:56:58.534Z,99608.95
2018-12-03T08:59:34.659Z,99611.64
2018-12-03T09:02:06.716Z,99617.02
2018-12-03T09:04:38.432Z,99617.55
2018-12-03T09:07:11.216Z,99607.88
2018-12-03T09:09:43.456Z,99610.81
2018-12-03T09:12:14.786Z,99613.26
2018-12-03T09:14:46.798Z,99611.09
2018-12-03T09:17:18.206Z,99614.35
2018-12-03T09:19:52.818Z,99617.31
2018-12-03T09:22:24.153Z,99613.82
2018-12-03T09:24:55.776Z,99625.67
2018-12-03T09:27:27.465Z,99624.88
2018-12-03T09:30:00.572Z,99628.64
2018-12-03T09:32:35.403Z,99628.36
2018-12-03T09:35:09.153Z,99633.50
2018-12-03T09:37:40.999Z,99643.22
2018-12-03T09:40:14.547Z,99629.19
2018-12-03T09:42:45.929Z,99633.23
2018-12-03T09:45:18.347Z,99635.90
2018-12-03T09:47:54.256Z,99643.46
2018-12-03T09:50:23.993Z,99642.63
2018-12-03T09:52:56.064Z,99635.92
2018-12-03T09:55:34.187Z,99640.77
2018-12-03T09:58:16.145Z,99635.90
2018-12-03T10:00:47.885Z,99643.46
2018-12-03T10:03:27.460Z,99637.52
2018-12-03T10:06:08.912Z,99638.07
2018-12-03T10:08:40.264Z,99640.77
2018-12-03T10:11:11.573Z,99638.07
2018-12-03T10:13:43.300Z,99627.81
2018-12-03T10:16:14.596Z,99629.44
2018-12-03T10:18:49.401Z,99629.44
2018-12-03T10:21:20.640Z,99628.36
2018-12-03T10:23:51.988Z,99616.24
2018-12-03T10:26:23.420Z,99629.98
2018-12-03T10:28:54.743Z,99625.95
2018-12-03T10:31:26.358Z,99625.13
2018-12-03T10:33:58.340Z,99628.91
2018-12-03T10:36:29.723Z,99621.91
2018-12-03T10:39:01.939Z,99627.56
2018-12-03T10:41:33.650Z,99641.55
2018-12-03T10:44:05.085Z,99633.23
2018-12-03T10:46:36.438Z,99638.86
2018-12-03T10:49:09.666Z,99636.72
2018-12-03T10:51:41.032Z,99640.76
2018-12-03T10:54:12.680Z,99633.75
2018-12-03T10:56:44.234Z,99636.44
2018-12-03T10:59:16.146Z,99633.75
2018-12-03T11:01:55.706Z,99629.70
2018-12-03T11:05:04.802Z,99628.36
2018-12-03T11:07:36.428Z,99624.31
2018-12-03T11:10:09.227Z,99629.98
2018-12-03T11:12:40.745Z,99637.51
2018-12-03T11:15:16.039Z,99630.26
2018-12-03T11:17:47.655Z,99637.27
2018-12-03T11:20:19.551Z,99628.91
2018-12-03T11:22:51.205Z,99641.31
2018-12-03T11:25:31.010Z,99632.12
2018-12-03T11:28:04.054Z,99631.88
2018-12-03T11:30:35.404Z,99634.03
2018-12-03T11:33:06.597Z,99636.17
2018-12-03T11:35:38.146Z,99630.78
2018-12-03T11:38:16.576Z,99631.33
2018-12-03T11:40:53.278Z,99626.49
2018-12-03T11:43:26.041Z,99629.98
2018-12-03T11:45:57.745Z,99622.17
2018-12-03T11:48:29.028Z,99609.78
2018-12-03T11:51:00.371Z,99620.83
2018-12-03T11:53:32.037Z,99619.48
2018-12-03T11:56:03.514Z,99614.38
2018-12-03T11:58:34.705Z,99610.86
2018-12-03T12:01:06.053Z,99609.51
2018-12-03T12:03:42.792Z,99612.75
2018-12-03T12:06:14.476Z,99610.86
2018-12-03T12:08:45.688Z,99609.51
2018-12-03T12:11:17.432Z,99606.27
2018-12-03T12:13:49.614Z,99612.75
2018-12-03T12:16:21.270Z,99608.71
2018-12-03T12:18:53.084Z,99617.04
2018-12-03T12:21:24.505Z,99607.09
2018-12-03T12:23:56.701Z,99610.85
2018-12-03T12:28:45.139Z,99610.06
2018-12-03T12:31:14.992Z,99612.48
2018-12-03T12:33:44.994Z,99609.51
2018-12-03T12:36:15.055Z,99608.95
2018-12-03T12:38:45.026Z,99606.54
2018-12-03T12:41:15.150Z,99603.60
2018-12-03T12:43:45.003Z,99605.74
2018-12-03T12:46:18.640Z,99599.80
2018-12-03T12:48:49.476Z,99602.25
2018-12-03T12:51:19.555Z,99594.17
2018-12-03T12:53:49.525Z,99602.25
2018-12-03T12:56:19.772Z,99594.97
2018-12-03T12:58:49.654Z,99588.78
2018-12-03T13:01:19.729Z,99583.92
2018-12-03T13:03:49.601Z,99594.97
2018-12-03T13:06:19.490Z,99592.55
2018-12-03T13:08:49.470Z,99597.66
2018-12-03T13:11:19.371Z,99596.30
2018-12-03T13:13:49.327Z,99588.22
2018-12-03T13:16:20.340Z,99596.85
2018-12-03T13:18:50.178Z,99596.02
2018-12-03T13:21:21.034Z,99604.37
2018-12-03T13:23:51.119Z,99610.84
2018-12-03T13:26:21.129Z,99611.10
2018-12-03T13:28:53.022Z,99617.30
2018-12-03T13:31:23.276Z,99613.50
2018-12-03T13:33:53.520Z,99619.69
2018-12-03T13:36:24.301Z,99619.97
2018-12-03T13:38:54.743Z,99617.27
2018-12-03T13:41:24.718Z,99619.13
2018-12-03T13:43:54.862Z,99609.99
2018-12-03T13:46:24.913Z,99608.38
2018-12-03T13:48:55.029Z,99606.79
2018-12-03T13:51:25.301Z,99609.21
2018-12-03T13:53:55.407Z,99611.08
2018-12-03T13:56:25.522Z,99604.08
2018-12-03T13:58:55.376Z,99605.70
2018-12-03T14:01:25.917Z,99608.39
2018-12-03T14:04:01.272Z,99601.94
2018-12-03T14:06:37.015Z,99616.20
2018-12-03T14:09:22.682Z,99611.08
2018-12-03T14:12:09.593Z,99609.73
2018-12-03T14:14:51.171Z,99608.39
2018-12-03T14:17:29.835Z,99609.45
2018-12-03T14:20:01.416Z,99613.50
2018-12-03T14:22:41.126Z,99607.32
2018-12-03T14:25:12.984Z,99608.66
2018-12-03T14:27:43.028Z,99609.73
2018-12-03T14:30:14.653Z,99606.23
2018-12-03T14:32:44.644Z,99604.07
2018-12-03T14:35:15.605Z,99606.75
2018-12-03T14:37:45.750Z,99596.52
2018-12-03T14:40:15.986Z,99600.02
2018-12-03T14:42:46.097Z,99604.05
2018-12-03T14:45:16.113Z,99612.63
2018-12-03T14:47:46.173Z,99609.14
2018-12-03T14:50:16.181Z,99612.63
2018-12-03T14:52:46.301Z,99616.66
2018-12-03T14:55:16.358Z,99613.96
2018-12-03T14:57:46.241Z,99616.39
2018-12-03T15:00:17.707Z,99613.94
2018-12-03T15:02:48.471Z,99611.00
2018-12-03T15:05:19.086Z,99609.36
2018-12-03T15:07:49.349Z,99605.31
2018-12-03T15:10:20.033Z,99610.68
2018-12-03T15:12:51.034Z,99603.94
2018-12-03T15:15:22.827Z,99599.09
2018-12-03T15:17:53.157Z,99602.83
2018-12-03T15:20:23.397Z,99595.03
2018-12-03T15:22:53.528Z,99595.80
2018-12-03T15:25:23.581Z,99599.53
2018-12-03T15:27:53.546Z,99607.06
2018-12-03T15:30:23.611Z,99603.55
2018-12-03T15:32:53.797Z,99609.16
2018-12-03T15:35:23.818Z,99608.30
2018-12-03T15:37:53.990Z,99608.29
2018-12-03T15:40:25.209Z,99608.30
2018-12-03T15:42:55.151Z,99609.64
2018-12-03T15:45:25.412Z,99613.12
2018-12-03T15:47:55.419Z,99599.66
2018-12-03T15:50:25.563Z,99606.14
2018-12-03T15:52:56.627Z,99603.98
2018-12-03T15:55:26.618Z,99609.34
2018-12-03T15:57:56.661Z,99609.05
2018-12-03T16:00:27.823Z,99616.55
2018-12-03T16:02:58.335Z,99618.70
2018-12-03T16:05:28.204Z,99618.20
2018-12-03T16:07:58.155Z,99624.37
2018-12-03T16:10:28.214Z,99629.21
2018-12-03T16:13:00.076Z,99623.33
2018-12-03T16:15:30.102Z,99630.54
2018-12-03T16:18:00.179Z,99630.79
2018-12-03T16:20:30.119Z,99637.20
2018-12-03T16:23:00.126Z,99637.96
2018-12-03T16:25:30.231Z,99636.91
2018-12-03T16:28:02.023Z,99632.85
2018-12-03T16:30:33.369Z,99637.40
2018-12-03T16:33:03.286Z,99641.21
2018-12-03T16:35:36.802Z,99642.01
2018-12-03T16:38:09.099Z,99640.42
2018-12-03T16:40:39.229Z,99646.38
2018-12-03T16:43:10.223Z,99637.50
2018-12-03T16:45:42.472Z,99642.34
2018-12-03T16:48:13.576Z,99639.38
2018-12-03T16:50:47.499Z,99642.86
2018-12-03T16:53:24.054Z,99647.95
2018-12-03T16:55:59.894Z,99635.63
2018-12-03T16:58:32.449Z,99637.22
2018-12-03T17:01:02.636Z,99636.44
2018-12-03T17:03:32.841Z,99628.96
2018-12-03T17:06:04.112Z,99630.04
2018-12-03T17:08:34.294Z,99619.79
2018-12-03T17:11:08.195Z,99617.67
2018-12-03T17:13:43.277Z,99612.79
2018-12-03T17:16:13.219Z,99614.35
2018-12-03T17:18:46.331Z,99611.38
2018-12-03T17:21:42.799Z,99614.05
2018-12-03T17:24:22.649Z,99613.97
2018-12-03T17:26:52.641Z,99619.00
2018-12-03T17:29:22.790Z,99617.31
2018-12-03T17:31:52.806Z,99616.19
2018-12-03T17:34:22.915Z,99609.72
2018-12-03T17:36:52.958Z,99610.83
2018-12-03T17:39:23.350Z,99615.38
2018-12-03T17:41:55.656Z,99617.05
2018-12-03T17:44:25.776Z,99616.27
2018-12-03T17:46:55.784Z,99619.55
2018-12-03T17:49:26.051Z,99621.73
2018-12-03T17:51:56.157Z,99614.27
2018-12-03T17:54:26.333Z,99612.13
2018-12-03T17:56:56.412Z,99609.19
2018-12-03T17:59:27.922Z,99612.16
2018-12-03T18:02:00.123Z,99604.94
2018-12-03T18:04:30.053Z,99610.30
2018-12-03T18:07:00.141Z,99605.70
2018-12-03T18:09:33.823Z,99606.02
2018-12-03T18:12:04.106Z,99604.12
2018-12-03T18:14:34.229Z,99607.06
2018-12-03T18:17:04.253Z,99601.41
2018-12-03T18:19:34.258Z,99601.41
2018-12-03T18:22:04.334Z,99602.79
2018-12-03T18:24:34.332Z,99597.98
2018-12-03T18:27:04.691Z,99600.91
2018-12-03T18:29:34.622Z,99603.07
2018-12-03T18:32:05.873Z,99602.01
2018-12-03T18:34:35.955Z,99603.35
2018-12-03T18:59:04.715Z,99597.86
2018-12-03T19:08:12.576Z,99589.88
2018-12-03T19:17:06.507Z,99594.45
2018-12-03T19:19:42.386Z,99597.17
2018-12-03T19:22:28.626Z,99590.72
2018-12-03T19:33:51.683Z,99587.30
2018-12-03T19:36:23.655Z,99583.80
2018-12-03T19:38:53.687Z,99588.11
2018-12-03T19:41:24.268Z,99582.73
2018-12-03T19:43:54.432Z,99579.48
2018-12-03T19:46:24.528Z,99571.69
2018-12-03T19:48:54.684Z,99570.61
2018-12-03T19:51:24.815Z,99569.25
2018-12-03T19:53:56.526Z,99574.89
2018-12-03T19:56:26.765Z,99580.80
2018-12-03T19:58:56.963Z,99586.45
2018-12-03T20:01:27.290Z,99586.47
2018-12-03T20:03:57.338Z,99585.14
2018-12-03T20:06:27.579Z,99574.41
2018-12-03T20:08:57.897Z,99575.48
2018-12-03T20:11:28.110Z,99577.40
2018-12-03T20:13:58.302Z,99580.89
2018-12-03T20:16:29.656Z,99582.00
2018-12-03T20:18:59.744Z,99580.66
2018-12-03T20:21:29.702Z,99582.28
2018-12-03T20:24:03.626Z,99583.05
2018-12-03T20:26:40.929Z,99583.57
2018-12-03T20:29:27.968Z,99583.89
2018-12-03T20:32:10.338Z,99579.31
2018-12-03T20:34:46.693Z,99587.38
2018-12-03T20:37:38.787Z,99584.97
2018-12-03T20:40:18.844Z,99585.47
2018-12-03T20:42:53.847Z,99585.23
2018-12-03T20:47:33.539Z,99581.44
2018-12-03T20:50:19.164Z,99586.86
2018-12-03T20:52:50.203Z,99598.37
2018-12-03T20:55:38.620Z,99595.40
2018-12-03T20:58:08.835Z,99602.11
2018-12-03T21:00:40.279Z,99607.98
2018-12-03T21:03:10.369Z,99609.57
2018-12-03T21:05:40.710Z,99612.23
2018-12-03T21:08:12.895Z,99614.90
2018-12-03T21:10:44.814Z,99612.72
2018-12-03T21:13:15.552Z,99618.08
2018-12-03T21:15:45.990Z,99621.02
2018-12-03T21:18:16.350Z,99626.40
2018-12-03T21:20:49.626Z,99632.02
2018-12-03T21:23:19.762Z,99641.73
2018-12-03T21:25:49.923Z,99650.87
2018-12-03T21:28:20.285Z,99656.26
2018-12-03T21:30:50.462Z,99660.29
2018-12-03T21:33:20.944Z,99655.98
2018-12-03T21:35:52.646Z,99669.44
2018-12-03T21:38:32.867Z,99683.71
2018-12-03T21:44:09.581Z,99723.77
2018-12-03T21:49:49.614Z,99750.63
2018-12-03T21:52:19.634Z,99752.98
2018-12-03T21:54:49.574Z,99756.02
2018-12-03T21:57:23.558Z,99760.72
2018-12-03T21:59:59.399Z,99775.39
2018-12-03T22:05:40.527Z,99792.11
2018-12-03T22:08:16.430Z,99809.33
2018-12-03T22:10:46.570Z,99824.02
2018-12-03T22:13:16.512Z,99835.19
2018-12-03T22:15:46.526Z,99840.14
2018-12-03T22:18:16.649Z,99842.53
2018-12-03T22:20:46.809Z,99854.03
2018-12-03T22:23:16.998Z,99860.14
2018-12-03T22:25:46.999Z,99867.23
2018-12-03T22:28:17.201Z,99871.30
2018-12-03T22:30:47.237Z,99878.19
2018-12-03T22:33:17.239Z,99887.34
2018-12-03T22:35:47.401Z,99893.25
2018-12-03T22:38:17.393Z,99897.66
2018-12-03T22:40:47.437Z,99909.32
2018-12-03T22:43:17.492Z,99911.09
2018-12-03T22:45:47.745Z,99912.58
2018-12-03T22:48:17.932Z,99921.85
2018-12-03T22:50:47.979Z,99925.63
2018-12-03T22:53:18.325Z,99941.64
2018-12-03T22:55:48.672Z,99943.56
2018-12-03T22:58:18.754Z,99956.66
2018-12-03T23:00:54.291Z,99961.42
2018-12-03T23:03:24.516Z,99965.58
2018-12-03T23:05:54.502Z,99969.53
2018-12-03T23:08:24.716Z,99973.73
2018-12-03T23:10:54.793Z,99981.23
2018-12-03T23:13:24.732Z,99981.09
2018-12-03T23:15:54.764Z,99988.23
2018-12-03T23:18:24.881Z,99995.03
2018-12-03T23:20:55.014Z,100006.05
2018-12-03T23:23:25.184Z,100020.41
2018-12-03T23:25:55.197Z,100022.67
2018-12-03T23:28:25.252Z,100034.20
2018-12-03T23:30:55.435Z,100042.80
2018-12-03T23:33:25.460Z,100046.75
2018-12-03T23:35:55.503Z,100050.77
2018-12-03T23:38:25.567Z,100051.59
2018-12-03T23:40:55.789Z,100060.83
2018-12-03T23:43:25.827Z,100065.28
2018-12-03T23:45:55.790Z,100064.71
2018-12-03T23:48:25.805Z,100066.85
2018-12-03T23:50:55.814Z,100063.24
2018-12-03T23:53:25.878Z,100068.30
2018-12-03T23:55:55.967Z,100070.97
2018-12-03T23:58:26.045Z,100070.97
